sensor_id;sensor_type;location;lat;lon;timestamp;P1;durP1;ratioP1;P2;durP2;ratioP2
80219;SDS011;70247;37.958;23.722;2023-06-01T00:01:59;34.15;;;23.45;;
80219;SDS011;70247;37.958;23.722;2023-06-01T00:04:24;33.70;;;24.92;;
80219;SDS011;70247;37.958;23.722;2023-06-01T00:06:50;33.20;;;23.25;;
80219;SDS011;70247;37.958;23.722;2023-06-01T00:09:16;32.72;;;24.17;;
80219;SDS011;70247;37.958;23.722;2023-06-01T00:11:42;32.55;;;24.15;;
80219;SDS011;70247;37.958;23.722;2023-06-01T00:14:08;35.20;;;25.42;;
80219;SDS011;70247;37.958;23.722;2023-06-01T00:16:34;36.83;;;24.50;;
80219;SDS011;70247;37.958;23.722;2023-06-01T00:19:01;33.47;;;24.50;;
80219;SDS011;70247;37.958;23.722;2023-06-01T00:21:28;32.40;;;24.95;;
80219;SDS011;70247;37.958;23.722;2023-06-01T00:23:56;30.45;;;24.15;;
80219;SDS011;70247;37.958;23.722;2023-06-01T00:26:22;37.03;;;25.90;;
80219;SDS011;70247;37.958;23.722;2023-06-01T00:28:48;39.92;;;25.50;;
80219;SDS011;70247;37.958;23.722;2023-06-01T00:31:14;38.38;;;25.60;;
80219;SDS011;70247;37.958;23.722;2023-06-01T00:33:40;33.90;;;24.65;;
80219;SDS011;70247;37.958;23.722;2023-06-01T00:36:06;30.10;;;22.75;;
80219;SDS011;70247;37.958;23.722;2023-06-01T00:38:31;26.23;;;21.17;;
80219;SDS011;70247;37.958;23.722;2023-06-01T00:40:57;30.65;;;22.77;;
80219;SDS011;70247;37.958;23.722;2023-06-01T00:43:23;27.30;;;22.05;;
80219;SDS011;70247;37.958;23.722;2023-06-01T00:45:49;33.55;;;21.60;;
80219;SDS011;70247;37.958;23.722;2023-06-01T00:48:15;28.73;;;21.10;;
80219;SDS011;70247;37.958;23.722;2023-06-01T00:50:41;33.90;;;22.50;;
80219;SDS011;70247;37.958;23.722;2023-06-01T00:53:08;32.00;;;20.73;;
80219;SDS011;70247;37.958;23.722;2023-06-01T00:55:39;32.30;;;22.70;;
80219;SDS011;70247;37.958;23.722;2023-06-01T00:58:06;27.95;;;20.83;;
80219;SDS011;70247;37.958;23.722;2023-06-01T01:00:32;27.58;;;20.30;;
80219;SDS011;70247;37.958;23.722;2023-06-01T01:02:57;27.73;;;22.23;;
80219;SDS011;70247;37.958;23.722;2023-06-01T01:05:25;31.58;;;21.45;;
80219;SDS011;70247;37.958;23.722;2023-06-01T01:13:37;31.27;;;20.60;;
80219;SDS011;70247;37.958;23.722;2023-06-01T01:16:18;29.88;;;21.77;;
80219;SDS011;70247;37.958;23.722;2023-06-01T01:21:49;29.25;;;22.02;;
80219;SDS011;70247;37.958;23.722;2023-06-01T01:29:56;36.25;;;23.38;;
80219;SDS011;70247;37.958;23.722;2023-06-01T01:32:30;34.95;;;23.55;;
80219;SDS011;70247;37.958;23.722;2023-06-01T01:34:57;36.88;;;23.30;;
80219;SDS011;70247;37.958;23.722;2023-06-01T01:37:25;34.38;;;22.95;;
80219;SDS011;70247;37.958;23.722;2023-06-01T01:39:51;30.35;;;22.75;;
80219;SDS011;70247;37.958;23.722;2023-06-01T01:42:16;29.70;;;21.90;;
80219;SDS011;70247;37.958;23.722;2023-06-01T01:44:42;32.17;;;22.92;;
80219;SDS011;70247;37.958;23.722;2023-06-01T01:47:26;30.27;;;23.27;;
80219;SDS011;70247;37.958;23.722;2023-06-01T01:49:59;32.95;;;22.85;;
80219;SDS011;70247;37.958;23.722;2023-06-01T01:52:38;29.30;;;22.33;;
80219;SDS011;70247;37.958;23.722;2023-06-01T01:55:09;30.77;;;23.65;;
80219;SDS011;70247;37.958;23.722;2023-06-01T01:57:36;33.78;;;23.45;;
80219;SDS011;70247;37.958;23.722;2023-06-01T02:00:03;34.50;;;23.23;;
80219;SDS011;70247;37.958;23.722;2023-06-01T02:02:32;30.35;;;23.40;;
80219;SDS011;70247;37.958;23.722;2023-06-01T02:04:58;31.48;;;23.42;;
80219;SDS011;70247;37.958;23.722;2023-06-01T02:07:24;38.35;;;24.13;;
80219;SDS011;70247;37.958;23.722;2023-06-01T02:09:50;34.60;;;23.52;;
80219;SDS011;70247;37.958;23.722;2023-06-01T02:12:15;37.33;;;23.92;;
80219;SDS011;70247;37.958;23.722;2023-06-01T02:14:41;33.60;;;23.60;;
80219;SDS011;70247;37.958;23.722;2023-06-01T02:17:07;29.92;;;24.10;;
80219;SDS011;70247;37.958;23.722;2023-06-01T02:19:33;34.58;;;24.63;;
80219;SDS011;70247;37.958;23.722;2023-06-01T02:21:59;31.90;;;23.60;;
80219;SDS011;70247;37.958;23.722;2023-06-01T02:24:25;33.30;;;24.27;;
80219;SDS011;70247;37.958;23.722;2023-06-01T02:26:50;32.20;;;23.13;;
80219;SDS011;70247;37.958;23.722;2023-06-01T02:29:20;37.42;;;24.98;;
80219;SDS011;70247;37.958;23.722;2023-06-01T02:31:50;32.53;;;24.23;;
80219;SDS011;70247;37.958;23.722;2023-06-01T02:34:16;36.35;;;24.67;;
80219;SDS011;70247;37.958;23.722;2023-06-01T02:36:42;31.83;;;23.85;;
80219;SDS011;70247;37.958;23.722;2023-06-01T02:39:08;32.10;;;23.70;;
80219;SDS011;70247;37.958;23.722;2023-06-01T02:41:34;34.97;;;23.90;;
80219;SDS011;70247;37.958;23.722;2023-06-01T02:44:00;29.50;;;22.10;;
80219;SDS011;70247;37.958;23.722;2023-06-01T02:46:26;32.63;;;23.77;;
80219;SDS011;70247;37.958;23.722;2023-06-01T02:48:51;35.97;;;23.65;;
80219;SDS011;70247;37.958;23.722;2023-06-01T02:51:18;30.63;;;22.15;;
80219;SDS011;70247;37.958;23.722;2023-06-01T02:53:44;30.52;;;22.52;;
80219;SDS011;70247;37.958;23.722;2023-06-01T02:56:11;30.00;;;22.25;;
80219;SDS011;70247;37.958;23.722;2023-06-01T02:58:38;36.72;;;21.20;;
80219;SDS011;70247;37.958;23.722;2023-06-01T03:01:04;34.60;;;22.23;;
80219;SDS011;70247;37.958;23.722;2023-06-01T03:03:30;27.15;;;21.50;;
80219;SDS011;70247;37.958;23.722;2023-06-01T03:05:56;32.63;;;21.65;;
80219;SDS011;70247;37.958;23.722;2023-06-01T03:08:22;29.08;;;21.10;;
80219;SDS011;70247;37.958;23.722;2023-06-01T03:10:51;32.35;;;21.40;;
80219;SDS011;70247;37.958;23.722;2023-06-01T03:13:17;29.30;;;20.05;;
80219;SDS011;70247;37.958;23.722;2023-06-01T03:15:43;31.08;;;20.40;;
80219;SDS011;70247;37.958;23.722;2023-06-01T03:18:09;28.77;;;18.85;;
80219;SDS011;70247;37.958;23.722;2023-06-01T03:20:35;28.13;;;18.70;;
80219;SDS011;70247;37.958;23.722;2023-06-01T03:23:01;27.92;;;19.20;;
80219;SDS011;70247;37.958;23.722;2023-06-01T03:25:27;26.73;;;18.98;;
80219;SDS011;70247;37.958;23.722;2023-06-01T03:27:53;25.90;;;19.05;;
80219;SDS011;70247;37.958;23.722;2023-06-01T03:30:18;27.67;;;18.33;;
80219;SDS011;70247;37.958;23.722;2023-06-01T03:32:45;25.67;;;19.25;;
80219;SDS011;70247;37.958;23.722;2023-06-01T03:35:11;24.73;;;19.60;;
80219;SDS011;70247;37.958;23.722;2023-06-01T03:37:38;29.52;;;19.52;;
80219;SDS011;70247;37.958;23.722;2023-06-01T03:40:05;29.80;;;19.55;;
80219;SDS011;70247;37.958;23.722;2023-06-01T03:45:05;26.80;;;19.77;;
80219;SDS011;70247;37.958;23.722;2023-06-01T03:47:31;28.13;;;20.20;;
80219;SDS011;70247;37.958;23.722;2023-06-01T03:49:58;29.83;;;21.27;;
80219;SDS011;70247;37.958;23.722;2023-06-01T03:52:27;29.73;;;21.08;;
80219;SDS011;70247;37.958;23.722;2023-06-01T03:54:54;25.70;;;20.17;;
80219;SDS011;70247;37.958;23.722;2023-06-01T03:57:21;27.95;;;19.90;;
80219;SDS011;70247;37.958;23.722;2023-06-01T03:59:47;24.50;;;19.20;;
80219;SDS011;70247;37.958;23.722;2023-06-01T04:02:13;30.52;;;20.83;;
80219;SDS011;70247;37.958;23.722;2023-06-01T04:04:39;27.88;;;20.08;;
80219;SDS011;70247;37.958;23.722;2023-06-01T04:07:10;32.67;;;20.00;;
80219;SDS011;70247;37.958;23.722;2023-06-01T04:09:40;29.15;;;20.85;;
80219;SDS011;70247;37.958;23.722;2023-06-01T04:12:06;24.38;;;19.52;;
80219;SDS011;70247;37.958;23.722;2023-06-01T04:14:32;27.48;;;19.38;;
80219;SDS011;70247;37.958;23.722;2023-06-01T04:16:58;26.48;;;19.63;;
80219;SDS011;70247;37.958;23.722;2023-06-01T04:19:23;33.15;;;20.95;;
80219;SDS011;70247;37.958;23.722;2023-06-01T04:21:49;28.15;;;20.23;;
80219;SDS011;70247;37.958;23.722;2023-06-01T04:24:15;26.55;;;20.55;;
80219;SDS011;70247;37.958;23.722;2023-06-01T04:26:41;33.35;;;22.02;;
80219;SDS011;70247;37.958;23.722;2023-06-01T04:29:07;32.97;;;22.08;;
80219;SDS011;70247;37.958;23.722;2023-06-01T04:31:36;38.30;;;22.10;;
80219;SDS011;70247;37.958;23.722;2023-06-01T04:34:03;37.08;;;22.50;;
80219;SDS011;70247;37.958;23.722;2023-06-01T04:36:33;29.27;;;19.90;;
80219;SDS011;70247;37.958;23.722;2023-06-01T04:39:04;24.58;;;18.92;;
80219;SDS011;70247;37.958;23.722;2023-06-01T04:41:34;29.05;;;19.55;;
80219;SDS011;70247;37.958;23.722;2023-06-01T04:44:00;23.30;;;18.90;;
80219;SDS011;70247;37.958;23.722;2023-06-01T04:46:31;32.55;;;19.42;;
80219;SDS011;70247;37.958;23.722;2023-06-01T04:48:56;32.67;;;19.85;;
80219;SDS011;70247;37.958;23.722;2023-06-01T04:51:27;25.02;;;17.65;;
80219;SDS011;70247;37.958;23.722;2023-06-01T04:53:54;31.40;;;18.35;;
80219;SDS011;70247;37.958;23.722;2023-06-01T04:56:22;27.15;;;17.35;;
80219;SDS011;70247;37.958;23.722;2023-06-01T04:58:52;29.58;;;16.70;;
80219;SDS011;70247;37.958;23.722;2023-06-01T05:01:22;30.90;;;16.90;;
80219;SDS011;70247;37.958;23.722;2023-06-01T05:03:54;24.63;;;16.77;;
80219;SDS011;70247;37.958;23.722;2023-06-01T05:06:21;35.38;;;17.77;;
80219;SDS011;70247;37.958;23.722;2023-06-01T05:08:47;32.42;;;17.48;;
80219;SDS011;70247;37.958;23.722;2023-06-01T05:11:13;30.70;;;16.92;;
80219;SDS011;70247;37.958;23.722;2023-06-01T05:13:39;25.85;;;15.45;;
80219;SDS011;70247;37.958;23.722;2023-06-01T05:16:06;28.70;;;15.48;;
80219;SDS011;70247;37.958;23.722;2023-06-01T05:18:33;25.80;;;16.23;;
80219;SDS011;70247;37.958;23.722;2023-06-01T05:20:59;26.42;;;17.42;;
80219;SDS011;70247;37.958;23.722;2023-06-01T05:23:27;25.15;;;15.75;;
80219;SDS011;70247;37.958;23.722;2023-06-01T05:25:53;32.08;;;16.77;;
80219;SDS011;70247;37.958;23.722;2023-06-01T05:28:31;31.50;;;16.10;;
80219;SDS011;70247;37.958;23.722;2023-06-01T05:30:58;23.88;;;15.88;;
80219;SDS011;70247;37.958;23.722;2023-06-01T05:33:24;22.70;;;15.52;;
80219;SDS011;70247;37.958;23.722;2023-06-01T05:35:50;25.48;;;14.05;;
80219;SDS011;70247;37.958;23.722;2023-06-01T05:38:15;22.65;;;16.17;;
80219;SDS011;70247;37.958;23.722;2023-06-01T05:40:41;28.17;;;16.00;;
80219;SDS011;70247;37.958;23.722;2023-06-01T05:43:07;25.85;;;15.13;;
80219;SDS011;70247;37.958;23.722;2023-06-01T05:45:33;19.77;;;14.07;;
80219;SDS011;70247;37.958;23.722;2023-06-01T05:47:59;25.60;;;13.93;;
80219;SDS011;70247;37.958;23.722;2023-06-01T05:50:24;29.00;;;14.25;;
80219;SDS011;70247;37.958;23.722;2023-06-01T05:52:50;26.65;;;14.25;;
80219;SDS011;70247;37.958;23.722;2023-06-01T05:55:16;22.23;;;13.52;;
80219;SDS011;70247;37.958;23.722;2023-06-01T05:57:42;20.67;;;11.80;;
80219;SDS011;70247;37.958;23.722;2023-06-01T06:00:08;17.73;;;11.30;;
80219;SDS011;70247;37.958;23.722;2023-06-01T06:02:36;19.10;;;10.73;;
80219;SDS011;70247;37.958;23.722;2023-06-01T06:05:02;13.88;;;9.38;;
80219;SDS011;70247;37.958;23.722;2023-06-01T06:07:29;13.10;;;8.32;;
80219;SDS011;70247;37.958;23.722;2023-06-01T06:09:55;14.55;;;8.70;;
80219;SDS011;70247;37.958;23.722;2023-06-01T06:12:21;17.65;;;9.10;;
80219;SDS011;70247;37.958;23.722;2023-06-01T06:14:48;21.50;;;9.20;;
80219;SDS011;70247;37.958;23.722;2023-06-01T06:17:14;16.88;;;9.98;;
80219;SDS011;70247;37.958;23.722;2023-06-01T06:19:40;17.27;;;9.35;;
80219;SDS011;70247;37.958;23.722;2023-06-01T06:22:08;18.23;;;8.60;;
80219;SDS011;70247;37.958;23.722;2023-06-01T06:24:34;16.20;;;9.05;;
80219;SDS011;70247;37.958;23.722;2023-06-01T06:27:00;17.70;;;8.35;;
80219;SDS011;70247;37.958;23.722;2023-06-01T06:29:27;14.18;;;8.32;;
80219;SDS011;70247;37.958;23.722;2023-06-01T06:31:53;14.30;;;8.75;;
80219;SDS011;70247;37.958;23.722;2023-06-01T06:34:19;17.50;;;8.45;;
80219;SDS011;70247;37.958;23.722;2023-06-01T06:36:45;16.50;;;8.73;;
80219;SDS011;70247;37.958;23.722;2023-06-01T06:39:11;14.00;;;8.45;;
80219;SDS011;70247;37.958;23.722;2023-06-01T06:41:39;18.90;;;7.90;;
80219;SDS011;70247;37.958;23.722;2023-06-01T06:44:06;14.75;;;8.52;;
80219;SDS011;70247;37.958;23.722;2023-06-01T06:46:31;18.05;;;8.18;;
80219;SDS011;70247;37.958;23.722;2023-06-01T06:48:57;15.90;;;7.97;;
80219;SDS011;70247;37.958;23.722;2023-06-01T06:51:23;13.77;;;8.75;;
80219;SDS011;70247;37.958;23.722;2023-06-01T06:53:48;13.43;;;8.80;;
80219;SDS011;70247;37.958;23.722;2023-06-01T06:56:14;14.10;;;8.27;;
80219;SDS011;70247;37.958;23.722;2023-06-01T06:58:40;12.48;;;8.50;;
80219;SDS011;70247;37.958;23.722;2023-06-01T07:01:07;12.35;;;9.05;;
80219;SDS011;70247;37.958;23.722;2023-06-01T07:03:33;11.27;;;8.20;;
80219;SDS011;70247;37.958;23.722;2023-06-01T07:05:59;15.00;;;8.52;;
80219;SDS011;70247;37.958;23.722;2023-06-01T07:08:25;12.77;;;8.38;;
80219;SDS011;70247;37.958;23.722;2023-06-01T07:10:52;15.50;;;8.50;;
80219;SDS011;70247;37.958;23.722;2023-06-01T07:13:20;14.07;;;9.68;;
80219;SDS011;70247;37.958;23.722;2023-06-01T07:15:47;27.23;;;8.93;;
80219;SDS011;70247;37.958;23.722;2023-06-01T07:18:12;13.20;;;8.15;;
80219;SDS011;70247;37.958;23.722;2023-06-01T07:20:38;12.35;;;7.88;;
80219;SDS011;70247;37.958;23.722;2023-06-01T07:23:04;12.30;;;8.25;;
80219;SDS011;70247;37.958;23.722;2023-06-01T07:25:30;13.85;;;9.10;;
80219;SDS011;70247;37.958;23.722;2023-06-01T07:27:56;11.88;;;8.93;;
80219;SDS011;70247;37.958;23.722;2023-06-01T07:30:22;14.50;;;8.43;;
80219;SDS011;70247;37.958;23.722;2023-06-01T07:32:48;18.33;;;8.50;;
80219;SDS011;70247;37.958;23.722;2023-06-01T07:35:13;17.33;;;8.70;;
80219;SDS011;70247;37.958;23.722;2023-06-01T07:37:39;13.05;;;7.95;;
80219;SDS011;70247;37.958;23.722;2023-06-01T07:40:06;11.45;;;8.57;;
80219;SDS011;70247;37.958;23.722;2023-06-01T07:42:33;17.73;;;8.07;;
80219;SDS011;70247;37.958;23.722;2023-06-01T07:44:58;17.50;;;8.85;;
80219;SDS011;70247;37.958;23.722;2023-06-01T07:47:27;14.13;;;8.55;;
80219;SDS011;70247;37.958;23.722;2023-06-01T07:49:53;18.23;;;8.52;;
80219;SDS011;70247;37.958;23.722;2023-06-01T07:52:19;13.02;;;8.05;;
80219;SDS011;70247;37.958;23.722;2023-06-01T07:54:45;14.88;;;7.60;;
80219;SDS011;70247;37.958;23.722;2023-06-01T07:57:10;11.10;;;8.75;;
80219;SDS011;70247;37.958;23.722;2023-06-01T07:59:37;14.95;;;8.07;;
80219;SDS011;70247;37.958;23.722;2023-06-01T08:02:02;8.85;;;7.53;;
80219;SDS011;70247;37.958;23.722;2023-06-01T08:04:28;18.27;;;8.45;;
80219;SDS011;70247;37.958;23.722;2023-06-01T08:06:58;17.05;;;8.27;;
80219;SDS011;70247;37.958;23.722;2023-06-01T08:09:24;12.57;;;8.05;;
80219;SDS011;70247;37.958;23.722;2023-06-01T08:11:50;20.35;;;7.90;;
80219;SDS011;70247;37.958;23.722;2023-06-01T08:14:16;12.25;;;7.93;;
80219;SDS011;70247;37.958;23.722;2023-06-01T08:16:43;17.95;;;7.68;;
80219;SDS011;70247;37.958;23.722;2023-06-01T08:19:10;13.05;;;7.10;;
80219;SDS011;70247;37.958;23.722;2023-06-01T08:21:36;14.88;;;6.30;;
80219;SDS011;70247;37.958;23.722;2023-06-01T08:24:02;13.50;;;6.18;;
80219;SDS011;70247;37.958;23.722;2023-06-01T08:26:28;10.65;;;6.13;;
80219;SDS011;70247;37.958;23.722;2023-06-01T08:28:54;12.23;;;6.47;;
80219;SDS011;70247;37.958;23.722;2023-06-01T08:31:21;9.10;;;5.47;;
80219;SDS011;70247;37.958;23.722;2023-06-01T08:33:48;10.88;;;5.35;;
80219;SDS011;70247;37.958;23.722;2023-06-01T08:36:15;9.05;;;5.43;;
80219;SDS011;70247;37.958;23.722;2023-06-01T08:38:42;12.70;;;5.78;;
80219;SDS011;70247;37.958;23.722;2023-06-01T08:41:24;11.93;;;5.82;;
80219;SDS011;70247;37.958;23.722;2023-06-01T08:44:03;12.60;;;5.55;;
80219;SDS011;70247;37.958;23.722;2023-06-01T08:46:33;12.90;;;5.43;;
80219;SDS011;70247;37.958;23.722;2023-06-01T08:49:01;13.77;;;5.30;;
80219;SDS011;70247;37.958;23.722;2023-06-01T08:51:29;9.45;;;5.32;;
80219;SDS011;70247;37.958;23.722;2023-06-01T08:53:58;27.10;;;5.40;;
80219;SDS011;70247;37.958;23.722;2023-06-01T08:56:28;11.07;;;5.72;;
80219;SDS011;70247;37.958;23.722;2023-06-01T08:58:55;17.10;;;5.65;;
80219;SDS011;70247;37.958;23.722;2023-06-01T09:01:22;18.83;;;6.00;;
80219;SDS011;70247;37.958;23.722;2023-06-01T09:03:48;12.50;;;5.68;;
80219;SDS011;70247;37.958;23.722;2023-06-01T09:06:16;17.25;;;5.90;;
80219;SDS011;70247;37.958;23.722;2023-06-01T09:08:44;13.23;;;5.93;;
80219;SDS011;70247;37.958;23.722;2023-06-01T09:11:10;11.90;;;5.40;;
80219;SDS011;70247;37.958;23.722;2023-06-01T09:13:37;12.88;;;5.20;;
80219;SDS011;70247;37.958;23.722;2023-06-01T09:16:05;5.40;;;4.63;;
80219;SDS011;70247;37.958;23.722;2023-06-01T09:18:32;8.93;;;4.53;;
80219;SDS011;70247;37.958;23.722;2023-06-01T09:21:13;16.05;;;5.53;;
80219;SDS011;70247;37.958;23.722;2023-06-01T09:23:40;11.25;;;5.38;;
80219;SDS011;70247;37.958;23.722;2023-06-01T09:26:11;14.60;;;5.70;;
80219;SDS011;70247;37.958;23.722;2023-06-01T09:31:38;7.50;;;4.78;;
80219;SDS011;70247;37.958;23.722;2023-06-01T09:34:08;6.32;;;4.55;;
80219;SDS011;70247;37.958;23.722;2023-06-01T09:36:36;8.13;;;5.25;;
80219;SDS011;70247;37.958;23.722;2023-06-01T09:39:03;10.75;;;5.25;;
80219;SDS011;70247;37.958;23.722;2023-06-01T09:44:39;9.30;;;5.25;;
80219;SDS011;70247;37.958;23.722;2023-06-01T09:47:07;11.35;;;4.93;;
80219;SDS011;70247;37.958;23.722;2023-06-01T09:49:36;12.82;;;5.20;;
80219;SDS011;70247;37.958;23.722;2023-06-01T09:54:34;9.20;;;4.70;;
80219;SDS011;70247;37.958;23.722;2023-06-01T09:57:05;8.93;;;4.70;;
80219;SDS011;70247;37.958;23.722;2023-06-01T09:59:46;9.23;;;5.25;;
80219;SDS011;70247;37.958;23.722;2023-06-01T10:02:13;17.00;;;5.10;;
80219;SDS011;70247;37.958;23.722;2023-06-01T10:04:41;10.10;;;5.20;;
80219;SDS011;70247;37.958;23.722;2023-06-01T10:07:10;9.07;;;4.93;;
80219;SDS011;70247;37.958;23.722;2023-06-01T10:09:38;14.13;;;5.50;;
80219;SDS011;70247;37.958;23.722;2023-06-01T10:12:08;13.90;;;5.50;;
80219;SDS011;70247;37.958;23.722;2023-06-01T10:14:35;7.10;;;5.10;;
80219;SDS011;70247;37.958;23.722;2023-06-01T10:17:04;11.50;;;5.63;;
80219;SDS011;70247;37.958;23.722;2023-06-01T10:19:30;13.60;;;5.50;;
80219;SDS011;70247;37.958;23.722;2023-06-01T10:21:56;9.88;;;5.95;;
80219;SDS011;70247;37.958;23.722;2023-06-01T10:24:23;11.25;;;5.97;;
80219;SDS011;70247;37.958;23.722;2023-06-01T10:29:30;8.47;;;5.70;;
80219;SDS011;70247;37.958;23.722;2023-06-01T10:31:57;10.70;;;5.75;;
80219;SDS011;70247;37.958;23.722;2023-06-01T10:34:42;8.35;;;5.13;;
80219;SDS011;70247;37.958;23.722;2023-06-01T10:39:36;9.13;;;5.10;;
80219;SDS011;70247;37.958;23.722;2023-06-01T10:47:07;19.85;;;5.97;;
80219;SDS011;70247;37.958;23.722;2023-06-01T10:52:26;18.20;;;5.53;;
80219;SDS011;70247;37.958;23.722;2023-06-01T10:54:58;17.10;;;6.07;;
80219;SDS011;70247;37.958;23.722;2023-06-01T10:57:42;6.47;;;4.85;;
80219;SDS011;70247;37.958;23.722;2023-06-01T11:08:05;9.38;;;4.85;;
80219;SDS011;70247;37.958;23.722;2023-06-01T11:13:19;8.23;;;4.60;;
80219;SDS011;70247;37.958;23.722;2023-06-01T11:21:09;9.95;;;6.20;;
80219;SDS011;70247;37.958;23.722;2023-06-01T11:23:40;12.20;;;6.20;;
80219;SDS011;70247;37.958;23.722;2023-06-01T11:26:06;8.32;;;5.57;;
80219;SDS011;70247;37.958;23.722;2023-06-01T11:28:33;8.90;;;5.07;;
80219;SDS011;70247;37.958;23.722;2023-06-01T11:31:00;12.88;;;4.97;;
80219;SDS011;70247;37.958;23.722;2023-06-01T11:33:29;8.73;;;5.20;;
80219;SDS011;70247;37.958;23.722;2023-06-01T11:36:02;14.27;;;5.07;;
80219;SDS011;70247;37.958;23.722;2023-06-01T11:38:40;10.25;;;4.97;;
80219;SDS011;70247;37.958;23.722;2023-06-01T11:41:07;8.27;;;4.82;;
80219;SDS011;70247;37.958;23.722;2023-06-01T11:43:34;13.98;;;5.68;;
80219;SDS011;70247;37.958;23.722;2023-06-01T11:46:01;13.02;;;5.55;;
80219;SDS011;70247;37.958;23.722;2023-06-01T11:48:31;10.18;;;5.10;;
80219;SDS011;70247;37.958;23.722;2023-06-01T11:51:00;9.23;;;4.63;;
80219;SDS011;70247;37.958;23.722;2023-06-01T11:53:30;7.82;;;4.93;;
80219;SDS011;70247;37.958;23.722;2023-06-01T11:55:57;9.27;;;4.95;;
80219;SDS011;70247;37.958;23.722;2023-06-01T11:58:26;5.05;;;4.30;;
80219;SDS011;70247;37.958;23.722;2023-06-01T12:00:54;9.85;;;4.82;;
80219;SDS011;70247;37.958;23.722;2023-06-01T12:03:21;9.63;;;5.30;;
80219;SDS011;70247;37.958;23.722;2023-06-01T12:05:49;12.93;;;5.13;;
80219;SDS011;70247;37.958;23.722;2023-06-01T12:08:16;6.57;;;4.70;;
80219;SDS011;70247;37.958;23.722;2023-06-01T12:10:47;7.05;;;4.50;;
80219;SDS011;70247;37.958;23.722;2023-06-01T12:13:15;20.23;;;5.55;;
80219;SDS011;70247;37.958;23.722;2023-06-01T12:15:42;9.90;;;5.18;;
80219;SDS011;70247;37.958;23.722;2023-06-01T12:18:08;8.30;;;5.05;;
80219;SDS011;70247;37.958;23.722;2023-06-01T12:20:35;12.10;;;5.10;;
80219;SDS011;70247;37.958;23.722;2023-06-01T12:23:14;11.63;;;4.95;;
80219;SDS011;70247;37.958;23.722;2023-06-01T12:25:57;12.45;;;4.93;;
80219;SDS011;70247;37.958;23.722;2023-06-01T12:28:26;9.23;;;4.68;;
80219;SDS011;70247;37.958;23.722;2023-06-01T12:33:38;8.23;;;4.47;;
80219;SDS011;70247;37.958;23.722;2023-06-01T12:36:05;10.95;;;5.25;;
80219;SDS011;70247;37.958;23.722;2023-06-01T12:38:35;12.32;;;4.82;;
80219;SDS011;70247;37.958;23.722;2023-06-01T12:41:06;9.38;;;4.78;;
80219;SDS011;70247;37.958;23.722;2023-06-01T12:43:33;9.85;;;5.03;;
80219;SDS011;70247;37.958;23.722;2023-06-01T12:46:02;9.27;;;4.75;;
80219;SDS011;70247;37.958;23.722;2023-06-01T12:48:35;12.57;;;4.82;;
80219;SDS011;70247;37.958;23.722;2023-06-01T12:51:02;9.27;;;5.00;;
80219;SDS011;70247;37.958;23.722;2023-06-01T12:53:29;8.38;;;4.70;;
80219;SDS011;70247;37.958;23.722;2023-06-01T12:55:55;10.40;;;5.15;;
80219;SDS011;70247;37.958;23.722;2023-06-01T12:58:21;15.80;;;5.90;;
80219;SDS011;70247;37.958;23.722;2023-06-01T13:00:47;11.40;;;5.13;;
80219;SDS011;70247;37.958;23.722;2023-06-01T13:03:14;13.75;;;4.85;;
80219;SDS011;70247;37.958;23.722;2023-06-01T13:05:42;13.70;;;4.82;;
80219;SDS011;70247;37.958;23.722;2023-06-01T13:08:12;11.20;;;5.00;;
80219;SDS011;70247;37.958;23.722;2023-06-01T13:10:38;11.50;;;5.18;;
80219;SDS011;70247;37.958;23.722;2023-06-01T13:13:03;8.57;;;4.90;;
80219;SDS011;70247;37.958;23.722;2023-06-01T13:15:29;8.50;;;4.78;;
80219;SDS011;70247;37.958;23.722;2023-06-01T13:17:55;9.05;;;5.10;;
80219;SDS011;70247;37.958;23.722;2023-06-01T13:20:21;13.52;;;5.45;;
80219;SDS011;70247;37.958;23.722;2023-06-01T13:22:47;15.20;;;5.35;;
80219;SDS011;70247;37.958;23.722;2023-06-01T13:25:13;8.65;;;4.65;;
80219;SDS011;70247;37.958;23.722;2023-06-01T13:27:39;8.70;;;5.07;;
80219;SDS011;70247;37.958;23.722;2023-06-01T13:30:05;7.93;;;5.07;;
80219;SDS011;70247;37.958;23.722;2023-06-01T13:32:32;7.93;;;4.60;;
80219;SDS011;70247;37.958;23.722;2023-06-01T13:34:58;9.57;;;5.50;;
80219;SDS011;70247;37.958;23.722;2023-06-01T13:37:24;10.50;;;4.75;;
80219;SDS011;70247;37.958;23.722;2023-06-01T13:39:50;10.32;;;5.07;;
80219;SDS011;70247;37.958;23.722;2023-06-01T13:42:16;12.15;;;4.93;;
80219;SDS011;70247;37.958;23.722;2023-06-01T13:44:41;10.70;;;5.30;;
80219;SDS011;70247;37.958;23.722;2023-06-01T13:47:14;7.88;;;4.85;;
80219;SDS011;70247;37.958;23.722;2023-06-01T13:49:41;10.98;;;4.88;;
80219;SDS011;70247;37.958;23.722;2023-06-01T13:52:07;7.07;;;4.68;;
80219;SDS011;70247;37.958;23.722;2023-06-01T13:54:34;11.15;;;5.00;;
80219;SDS011;70247;37.958;23.722;2023-06-01T13:57:00;10.10;;;4.95;;
80219;SDS011;70247;37.958;23.722;2023-06-01T13:59:28;10.93;;;4.90;;
80219;SDS011;70247;37.958;23.722;2023-06-01T14:01:55;7.13;;;4.60;;
80219;SDS011;70247;37.958;23.722;2023-06-01T14:04:21;9.02;;;5.00;;
80219;SDS011;70247;37.958;23.722;2023-06-01T14:06:47;11.45;;;4.60;;
80219;SDS011;70247;37.958;23.722;2023-06-01T14:09:15;9.00;;;4.80;;
80219;SDS011;70247;37.958;23.722;2023-06-01T14:11:41;12.52;;;4.90;;
80219;SDS011;70247;37.958;23.722;2023-06-01T14:14:08;8.95;;;5.43;;
80219;SDS011;70247;37.958;23.722;2023-06-01T14:16:33;9.95;;;5.13;;
80219;SDS011;70247;37.958;23.722;2023-06-01T14:18:59;9.82;;;5.78;;
80219;SDS011;70247;37.958;23.722;2023-06-01T14:21:25;10.80;;;5.10;;
80219;SDS011;70247;37.958;23.722;2023-06-01T14:23:51;12.68;;;5.78;;
80219;SDS011;70247;37.958;23.722;2023-06-01T14:26:17;10.88;;;6.07;;
80219;SDS011;70247;37.958;23.722;2023-06-01T14:28:43;10.07;;;5.50;;
80219;SDS011;70247;37.958;23.722;2023-06-01T14:31:08;10.13;;;5.15;;
80219;SDS011;70247;37.958;23.722;2023-06-01T14:33:34;6.75;;;5.07;;
80219;SDS011;70247;37.958;23.722;2023-06-01T14:36:01;9.05;;;5.15;;
80219;SDS011;70247;37.958;23.722;2023-06-01T14:38:26;12.27;;;5.70;;
80219;SDS011;70247;37.958;23.722;2023-06-01T14:40:52;14.07;;;5.15;;
80219;SDS011;70247;37.958;23.722;2023-06-01T14:43:18;6.38;;;5.05;;
80219;SDS011;70247;37.958;23.722;2023-06-01T14:45:44;7.28;;;4.95;;
80219;SDS011;70247;37.958;23.722;2023-06-01T14:48:09;9.30;;;5.35;;
80219;SDS011;70247;37.958;23.722;2023-06-01T14:50:35;12.20;;;5.03;;
80219;SDS011;70247;37.958;23.722;2023-06-01T14:53:01;15.27;;;4.72;;
80219;SDS011;70247;37.958;23.722;2023-06-01T14:55:27;8.93;;;4.82;;
80219;SDS011;70247;37.958;23.722;2023-06-01T14:57:52;9.55;;;4.93;;
80219;SDS011;70247;37.958;23.722;2023-06-01T15:00:18;9.77;;;4.93;;
80219;SDS011;70247;37.958;23.722;2023-06-01T15:02:44;13.05;;;5.10;;
80219;SDS011;70247;37.958;23.722;2023-06-01T15:05:10;7.97;;;4.90;;
80219;SDS011;70247;37.958;23.722;2023-06-01T15:07:36;9.80;;;4.68;;
80219;SDS011;70247;37.958;23.722;2023-06-01T15:10:02;7.63;;;5.10;;
80219;SDS011;70247;37.958;23.722;2023-06-01T15:12:28;9.88;;;5.00;;
80219;SDS011;70247;37.958;23.722;2023-06-01T15:14:54;11.85;;;4.88;;
80219;SDS011;70247;37.958;23.722;2023-06-01T15:17:20;11.93;;;4.72;;